createdAt,value
2022-12-13T05:14:23.254Z,100.00
2022-12-13T05:17:27.213Z,100.00
2022-12-13T05:20:31.043Z,100.00
2022-12-13T05:23:34.280Z,100.00
2022-12-13T05:26:36.804Z,100.00
2022-12-13T05:29:39.605Z,100.00
2022-12-13T05:32:43.794Z,100.00
2022-12-13T05:35:47.786Z,100.00
2022-12-13T05:39:00.368Z,100.00
2022-12-13T05:42:03.377Z,100.00
2022-12-13T05:45:07.957Z,100.00
2022-12-13T05:48:11.080Z,100.00
2022-12-13T05:51:13.693Z,100.00
2022-12-13T05:54:16.631Z,100.00
2022-12-13T05:57:19.027Z,100.00
2022-12-13T06:00:28.791Z,100.00
2022-12-13T06:03:33.370Z,100.00
2022-12-13T06:06:37.020Z,100.00
2022-12-13T06:09:40.986Z,100.00
2022-12-13T06:12:43.941Z,100.00
2022-12-13T06:15:46.690Z,100.00
2022-12-13T06:18:50.631Z,100.00
2022-12-13T06:21:55.103Z,100.00
2022-12-13T06:24:57.651Z,100.00
2022-12-13T06:28:00.948Z,100.00
2022-12-13T06:31:05.084Z,100.00
2022-12-13T06:34:14.999Z,100.00
2022-12-13T06:37:17.815Z,100.00
2022-12-13T06:40:23.234Z,100.00
2022-12-13T06:43:25.928Z,100.00
2022-12-13T06:46:28.833Z,100.00
2022-12-13T06:49:32.896Z,100.00
2022-12-13T06:52:36.651Z,100.00
2022-12-13T06:55:39.976Z,100.00
2022-12-13T06:58:43.208Z,100.00
2022-12-13T07:01:50.736Z,100.00
2022-12-13T07:09:01.526Z,100.00
2022-12-13T07:12:05.049Z,100.00
2022-12-13T07:15:09.014Z,100.00
2022-12-13T07:18:11.925Z,100.00
2022-12-13T07:21:22.008Z,100.00
2022-12-13T07:24:25.210Z,100.00
2022-12-13T07:27:29.248Z,100.00
2022-12-13T07:30:41.209Z,100.00
2022-12-13T07:33:44.166Z,100.00
2022-12-13T07:36:50.148Z,100.00
2022-12-13T07:39:53.239Z,100.00
2022-12-13T07:42:58.497Z,100.00
2022-12-13T07:46:03.287Z,100.00
2022-12-13T07:49:06.159Z,100.00
2022-12-13T07:52:12.424Z,100.00
2022-12-13T07:55:15.468Z,100.00
2022-12-13T07:58:18.062Z,100.00
2022-12-13T08:01:21.006Z,100.00
2022-12-13T08:04:23.980Z,100.00
2022-12-13T08:07:26.606Z,100.00
2022-12-13T08:10:29.858Z,100.00
2022-12-13T08:13:33.358Z,100.00
2022-12-13T08:16:36.176Z,100.00
2022-12-13T08:19:39.025Z,100.00
2022-12-13T08:22:41.794Z,100.00
2022-12-13T08:25:53.852Z,100.00
2022-12-13T08:28:56.828Z,100.00
2022-12-13T08:32:01.243Z,100.00
2022-12-13T08:35:04.568Z,100.00
2022-12-13T08:38:07.094Z,100.00
2022-12-13T08:41:12.082Z,100.00
2022-12-13T08:44:14.675Z,100.00
2022-12-13T08:47:23.082Z,100.00
2022-12-13T08:50:31.200Z,100.00
2022-12-13T08:53:40.990Z,100.00
2022-12-13T08:56:43.921Z,100.00
2022-12-13T08:59:47.443Z,100.00
2022-12-13T09:02:50.705Z,100.00
2022-12-13T09:05:53.905Z,100.00
2022-12-13T09:08:56.532Z,100.00
2022-12-13T09:12:00.168Z,100.00
2022-12-13T09:15:02.904Z,100.00
2022-12-13T09:18:06.098Z,100.00
2022-12-13T09:21:22.340Z,100.00
2022-12-13T09:24:36.359Z,100.00
2022-12-13T09:27:40.029Z,100.00
2022-12-13T09:30:43.492Z,100.00
2022-12-13T09:33:46.786Z,60.09
2022-12-13T09:36:49.722Z,49.52
2022-12-13T09:39:55.022Z,34.61
2022-12-13T09:43:13.723Z,33.18
2022-12-13T09:46:25.414Z,28.10
2022-12-13T09:49:52.031Z,26.53
2022-12-13T09:53:00.203Z,25.17
2022-12-13T09:56:10.836Z,26.46
2022-12-13T09:59:14.401Z,24.51
2022-12-13T10:02:24.266Z,24.81
2022-12-13T10:05:40.266Z,24.75
2022-12-13T10:08:57.783Z,29.81
2022-12-13T10:12:01.767Z,38.51
2022-12-13T10:15:04.998Z,42.16
2022-12-13T10:18:14.555Z,43.77
2022-12-13T10:21:30.417Z,47.95
2022-12-13T10:24:56.604Z,49.21
2022-12-13T10:27:59.632Z,52.10
2022-12-13T10:31:03.486Z,53.74
2022-12-13T10:34:06.002Z,55.64
2022-12-13T10:37:24.001Z,56.29
2022-12-13T10:40:34.675Z,56.96
2022-12-13T10:43:38.139Z,58.86
2022-12-13T10:46:43.070Z,62.18
2022-12-13T10:49:58.882Z,60.82
2022-12-13T10:53:02.331Z,58.93
2022-12-13T10:56:05.771Z,61.11
2022-12-13T10:59:34.435Z,59.96
2022-12-13T11:02:41.590Z,57.99
2022-12-13T11:05:46.770Z,57.72
2022-12-13T11:08:49.623Z,60.02
2022-12-13T11:11:58.346Z,59.38
2022-12-13T11:15:06.399Z,58.50
2022-12-13T11:18:20.917Z,53.26
2022-12-13T11:21:26.675Z,55.44
2022-12-13T11:24:33.795Z,57.71
2022-12-13T11:27:44.284Z,58.00
2022-12-13T11:31:01.265Z,61.41
2022-12-13T11:34:32.926Z,57.63
2022-12-13T11:37:44.344Z,55.84
2022-12-13T11:40:56.820Z,57.72
2022-12-13T11:44:05.223Z,59.39
2022-12-13T11:47:16.869Z,61.47
2022-12-13T11:50:33.411Z,61.83
2022-12-13T11:53:56.342Z,63.75
2022-12-13T11:57:07.880Z,60.99
2022-12-13T12:00:33.727Z,61.13
2022-12-13T12:03:46.697Z,64.18
2022-12-13T12:07:08.285Z,66.01
2022-12-13T12:10:36.073Z,67.20
2022-12-13T12:13:53.117Z,66.79
2022-12-13T12:16:59.438Z,63.47
2022-12-13T12:20:03.968Z,63.88
2022-12-13T12:23:27.008Z,64.49
2022-12-13T12:26:48.741Z,66.58
2022-12-13T12:30:23.630Z,67.51
2022-12-13T12:33:52.048Z,65.84
2022-12-13T12:37:20.521Z,65.25
2022-12-13T12:41:15.195Z,67.89
2022-12-13T12:44:43.774Z,68.66
2022-12-13T12:48:47.992Z,68.20
2022-12-13T12:51:44.655Z,66.92
2022-12-13T12:55:17.009Z,67.43
2022-12-13T12:58:29.227Z,67.47
2022-12-13T13:01:44.493Z,68.28
2022-12-13T13:04:53.638Z,68.69
2022-12-13T13:08:05.198Z,70.50
2022-12-13T13:11:23.711Z,70.60
2022-12-13T13:14:37.010Z,70.11
2022-12-13T13:17:39.645Z,68.71
2022-12-13T13:20:43.503Z,67.68
2022-12-13T13:23:46.953Z,66.49
2022-12-13T13:27:08.908Z,67.24
2022-12-13T13:30:24.666Z,69.84
2022-12-13T13:33:51.058Z,68.33
2022-12-13T13:36:57.801Z,67.56
2022-12-13T13:40:30.662Z,67.24
2022-12-13T13:43:34.758Z,66.34
2022-12-13T13:47:15.498Z,67.12
2022-12-13T13:50:42.453Z,68.47
2022-12-13T13:53:54.276Z,69.67
2022-12-13T13:57:00.009Z,69.92
2022-12-13T14:00:15.236Z,69.36
2022-12-13T14:03:43.746Z,70.20
2022-12-13T14:07:12.586Z,70.57
2022-12-13T14:10:34.764Z,70.70
2022-12-13T14:13:56.005Z,71.86
2022-12-13T14:17:10.943Z,72.22
2022-12-13T14:20:16.736Z,73.54
2022-12-13T14:24:10.400Z,75.14
2022-12-13T14:27:21.790Z,75.83
2022-12-13T14:30:28.436Z,76.41
2022-12-13T14:33:31.952Z,77.64
2022-12-13T14:36:36.689Z,78.20
2022-12-13T14:39:45.123Z,78.49
2022-12-13T14:42:55.002Z,78.98
2022-12-13T14:46:03.919Z,79.00
2022-12-13T14:49:07.943Z,80.54
2022-12-13T14:52:26.971Z,81.72
2022-12-13T14:55:37.558Z,81.59
2022-12-13T14:58:51.949Z,81.68
2022-12-13T15:01:58.574Z,81.22
2022-12-13T15:05:03.778Z,81.65
2022-12-13T15:08:16.820Z,83.15
2022-12-13T15:11:20.971Z,81.81
2022-12-13T15:14:25.617Z,83.20
2022-12-13T15:17:37.536Z,83.74
2022-12-13T15:20:50.072Z,85.67
2022-12-13T15:23:55.156Z,86.71
2022-12-13T15:27:03.903Z,87.94
2022-12-13T15:30:07.281Z,87.58
2022-12-13T15:33:34.469Z,87.07
2022-12-13T15:36:40.553Z,87.77
2022-12-13T15:39:48.244Z,89.19
2022-12-13T15:42:51.908Z,90.41
2022-12-13T15:45:55.781Z,93.98
2022-12-13T15:49:02.956Z,91.19
2022-12-13T15:52:24.041Z,90.54
2022-12-13T15:55:32.984Z,90.54
2022-12-13T15:58:37.142Z,93.74
2022-12-13T16:01:42.865Z,92.89
2022-12-13T16:04:51.241Z,95.75
2022-12-13T16:07:56.846Z,95.34
2022-12-13T16:11:00.690Z,98.14
2022-12-13T16:14:31.595Z,97.91
2022-12-13T16:17:37.165Z,96.88
2022-12-13T16:20:41.031Z,95.65
2022-12-13T16:23:48.957Z,96.80
2022-12-13T16:26:51.716Z,96.63
2022-12-13T16:29:54.772Z,96.55
